createdAt,value
2018-06-21T00:00:18.260Z,15.08
2018-06-21T00:03:47.538Z,15.15
2018-06-21T00:05:22.849Z,15.20
2018-06-21T00:06:59.918Z,15.26
2018-06-21T00:08:35.356Z,15.31
2018-06-21T00:10:10.319Z,15.34
2018-06-21T00:11:46.360Z,15.36
2018-06-21T00:13:22.393Z,15.41
2018-06-21T00:14:57.340Z,15.48
2018-06-21T00:16:34.577Z,15.52
2018-06-21T00:18:10.233Z,15.55
2018-06-21T00:19:46.023Z,15.58
2018-06-21T00:21:25.566Z,15.65
2018-06-21T00:23:02.343Z,15.68
2018-06-21T00:24:37.285Z,15.71
2018-06-21T00:26:12.388Z,15.75
2018-06-21T00:27:49.732Z,15.84
2018-06-21T00:29:28.866Z,15.84
2018-06-21T00:31:09.689Z,15.85
2018-06-21T00:32:46.109Z,15.89
2018-06-21T00:34:20.951Z,15.92
2018-06-21T00:35:56.933Z,15.94
2018-06-21T00:37:31.796Z,15.98
2018-06-21T00:39:08.809Z,16.00
2018-06-21T00:40:43.735Z,16.06
2018-06-21T00:42:18.527Z,16.04
2018-06-21T00:43:53.893Z,16.06
2018-06-21T00:45:28.929Z,16.05
2018-06-21T00:47:05.372Z,16.00
2018-06-21T00:48:42.341Z,15.98
2018-06-21T00:50:17.197Z,15.95
2018-06-21T00:51:52.480Z,15.97
2018-06-21T00:53:27.508Z,16.01
2018-06-21T00:55:03.328Z,15.89
2018-06-21T00:56:38.492Z,15.83
2018-06-21T00:58:13.481Z,15.87
2018-06-21T00:59:50.182Z,15.75
2018-06-21T01:01:25.011Z,15.76
2018-06-21T01:02:59.731Z,15.65
2018-06-21T01:04:34.506Z,15.58
2018-06-21T01:06:10.128Z,15.63
2018-06-21T01:07:46.333Z,15.51
2018-06-21T01:09:21.621Z,15.45
2018-06-21T01:10:57.929Z,15.31
2018-06-21T01:12:32.736Z,15.25
2018-06-21T01:14:08.656Z,15.19
2018-06-21T01:15:45.146Z,15.16
2018-06-21T01:17:20.208Z,15.11
2018-06-21T01:18:57.137Z,15.14
2018-06-21T01:20:32.850Z,15.15
2018-06-21T01:22:08.771Z,14.99
2018-06-21T01:23:43.985Z,14.94
2018-06-21T01:25:18.945Z,14.99
2018-06-21T01:26:54.001Z,14.93
2018-06-21T01:28:29.025Z,14.91
2018-06-21T01:30:17.679Z,14.95
2018-06-21T01:31:53.945Z,14.82
2018-06-21T01:33:28.792Z,14.83
2018-06-21T01:35:03.545Z,14.83
2018-06-21T01:36:39.521Z,14.79
2018-06-21T01:38:14.959Z,14.81
2018-06-21T01:39:49.692Z,14.82
2018-06-21T01:41:24.504Z,14.75
2018-06-21T01:42:59.192Z,14.79
2018-06-21T01:44:33.912Z,14.78
2018-06-21T01:47:44.665Z,14.93
2018-06-21T01:49:19.535Z,14.86
2018-06-21T01:50:54.570Z,14.78
2018-06-21T01:52:29.488Z,14.80
2018-06-21T01:54:04.719Z,14.72
2018-06-21T01:55:39.579Z,14.73
2018-06-21T01:57:15.298Z,14.73
2018-06-21T01:58:50.197Z,14.69
2018-06-21T02:00:25.643Z,14.65
2018-06-21T02:02:01.177Z,14.65
2018-06-21T02:03:37.143Z,14.64
2018-06-21T02:05:12.087Z,14.63
2018-06-21T02:06:47.849Z,14.61
2018-06-21T02:08:23.195Z,14.61
2018-06-21T02:09:58.942Z,14.60
2018-06-21T02:11:33.820Z,14.56
2018-06-21T02:13:08.672Z,14.62
2018-06-21T02:14:44.696Z,14.56
2018-06-21T02:16:19.713Z,14.59
2018-06-21T02:17:56.660Z,14.54
2018-06-21T02:19:31.725Z,14.51
2018-06-21T02:21:07.287Z,14.60
2018-06-21T02:22:43.153Z,14.54
2018-06-21T02:24:20.045Z,14.50
2018-06-21T02:25:56.149Z,14.48
2018-06-21T02:27:31.550Z,14.48
2018-06-21T02:29:06.600Z,14.50
2018-06-21T02:30:41.595Z,14.42
2018-06-21T02:32:16.844Z,14.38
2018-06-21T02:33:52.085Z,14.38
2018-06-21T02:35:26.891Z,14.37
2018-06-21T02:37:02.358Z,14.34
2018-06-21T02:38:37.263Z,14.33
2018-06-21T02:40:12.985Z,14.43
2018-06-21T02:41:48.472Z,14.39
2018-06-21T02:43:23.181Z,14.38
2018-06-21T02:44:58.064Z,14.34
2018-06-21T02:46:32.951Z,14.37
2018-06-21T02:48:07.714Z,14.50
2018-06-21T02:49:47.713Z,14.54
2018-06-21T02:51:23.228Z,14.52
2018-06-21T02:52:58.233Z,14.58
2018-06-21T02:54:33.033Z,14.57
2018-06-21T02:56:07.872Z,14.58
2018-06-21T02:57:43.006Z,14.52
2018-06-21T02:59:17.913Z,14.51
2018-06-21T03:00:53.802Z,14.45
2018-06-21T03:02:28.691Z,14.42
2018-06-21T03:04:03.627Z,14.44
2018-06-21T03:05:46.087Z,14.39
2018-06-21T03:07:21.248Z,14.38
2018-06-21T03:08:56.032Z,14.29
2018-06-21T03:10:31.524Z,14.35
2018-06-21T03:12:10.301Z,14.33
2018-06-21T03:13:46.219Z,14.39
2018-06-21T03:15:21.277Z,14.31
2018-06-21T03:16:56.713Z,14.25
2018-06-21T03:18:33.491Z,14.29
2018-06-21T03:20:12.217Z,14.21
2018-06-21T03:21:48.094Z,14.19
2018-06-21T03:23:23.420Z,14.11
2018-06-21T03:25:00.301Z,14.12
2018-06-21T03:26:35.307Z,14.21
2018-06-21T03:28:12.928Z,14.18
2018-06-21T03:29:47.728Z,14.20
2018-06-21T03:31:23.221Z,14.23
2018-06-21T03:32:58.119Z,14.21
2018-06-21T03:34:33.604Z,14.22
2018-06-21T03:36:08.437Z,14.17
2018-06-21T03:37:43.233Z,14.14
2018-06-21T03:39:18.197Z,14.17
2018-06-21T03:40:53.135Z,14.09
2018-06-21T03:42:28.275Z,14.07
2018-06-21T03:44:03.267Z,14.11
2018-06-21T03:45:38.273Z,14.09
2018-06-21T03:47:14.313Z,14.07
2018-06-21T03:48:49.229Z,14.03
2018-06-21T03:50:24.652Z,14.03
2018-06-21T03:51:59.568Z,13.97
2018-06-21T03:53:34.819Z,13.98
2018-06-21T03:55:09.676Z,13.97
2018-06-21T03:56:44.549Z,13.97
2018-06-21T03:58:21.333Z,14.01
2018-06-21T03:59:56.317Z,14.03
2018-06-21T04:01:31.313Z,14.01
2018-06-21T04:03:07.919Z,14.02
2018-06-21T04:04:42.723Z,14.07
2018-06-21T04:06:18.041Z,14.13
2018-06-21T04:07:53.828Z,14.18
2018-06-21T04:09:30.064Z,14.20
2018-06-21T04:11:04.897Z,14.23
2018-06-21T04:12:39.798Z,14.29
2018-06-21T04:14:15.030Z,14.37
2018-06-21T04:15:50.895Z,14.42
2018-06-21T04:17:27.635Z,14.47
2018-06-21T04:19:03.180Z,14.52
2018-06-21T04:20:38.608Z,14.59
2018-06-21T04:22:14.908Z,14.63
2018-06-21T04:23:49.822Z,14.75
2018-06-21T04:25:25.549Z,14.87
2018-06-21T04:27:01.432Z,14.93
2018-06-21T04:28:37.532Z,14.99
2018-06-21T04:30:13.729Z,15.04
2018-06-21T04:31:48.575Z,15.13
2018-06-21T04:33:23.430Z,15.19
2018-06-21T04:34:58.244Z,15.23
2018-06-21T04:36:32.988Z,15.33
2018-06-21T04:38:09.601Z,15.42
2018-06-21T04:39:44.456Z,15.45
2018-06-21T04:41:21.549Z,15.53
2018-06-21T04:42:56.339Z,15.62
2018-06-21T04:44:31.091Z,15.70
2018-06-21T04:46:08.372Z,15.84
2018-06-21T04:47:43.149Z,15.97
2018-06-21T04:49:19.211Z,16.03
2018-06-21T04:50:54.983Z,16.18
2018-06-21T04:52:29.707Z,16.22
2018-06-21T04:54:07.774Z,16.22
2018-06-21T04:55:42.588Z,16.37
2018-06-21T04:57:18.224Z,16.49
2018-06-21T04:58:53.094Z,16.70
2018-06-21T05:00:28.975Z,16.68
2018-06-21T05:02:05.009Z,16.83
2018-06-21T05:03:41.296Z,17.00
2018-06-21T05:05:16.235Z,17.11
2018-06-21T05:06:51.161Z,17.27
2018-06-21T05:08:26.021Z,17.43
2018-06-21T05:10:03.681Z,17.52
2018-06-21T05:11:39.606Z,17.57
2018-06-21T05:13:15.332Z,17.67
2018-06-21T05:14:50.821Z,17.80
2018-06-21T05:16:25.678Z,17.83
2018-06-21T05:18:00.955Z,17.65
2018-06-21T05:19:35.926Z,17.81
2018-06-21T05:21:11.209Z,17.86
2018-06-21T05:22:47.072Z,17.58
2018-06-21T05:24:21.964Z,17.45
2018-06-21T05:26:05.836Z,17.40
2018-06-21T05:27:42.887Z,17.22
2018-06-21T05:29:18.629Z,17.13
2018-06-21T05:30:55.133Z,16.98
2018-06-21T05:32:30.106Z,16.84
2018-06-21T05:34:04.998Z,16.77
2018-06-21T05:35:40.175Z,16.62
2018-06-21T05:37:17.246Z,16.46
2018-06-21T05:38:52.330Z,16.46
2018-06-21T05:40:32.235Z,16.53
2018-06-21T05:42:08.763Z,16.49
2018-06-21T05:43:44.956Z,16.58
2018-06-21T05:45:20.336Z,16.43
2018-06-21T05:46:56.608Z,16.34
2018-06-21T05:48:31.366Z,16.27
2018-06-21T05:50:06.252Z,16.48
2018-06-21T05:51:43.299Z,16.54
2018-06-21T05:53:18.851Z,16.52
2018-06-21T05:54:53.681Z,16.51
2018-06-21T05:56:29.280Z,16.36
2018-06-21T05:58:04.278Z,16.43
2018-06-21T05:59:39.594Z,16.36
2018-06-21T06:01:14.508Z,16.42
2018-06-21T06:02:49.446Z,16.38
2018-06-21T06:04:25.135Z,16.40
2018-06-21T06:06:00.620Z,16.44
2018-06-21T06:07:37.288Z,16.33
2018-06-21T06:09:13.377Z,16.39
2018-06-21T06:10:48.287Z,16.43
2018-06-21T06:12:23.193Z,16.43
2018-06-21T06:13:59.919Z,16.32
2018-06-21T06:15:35.591Z,16.33
2018-06-21T06:17:11.500Z,16.35
2018-06-21T06:18:46.332Z,16.40
2018-06-21T06:20:21.836Z,16.23
2018-06-21T06:21:56.648Z,16.20
2018-06-21T06:23:31.546Z,16.16
2018-06-21T06:25:06.439Z,16.13
2018-06-21T06:26:41.396Z,16.13
2018-06-21T06:29:59.495Z,16.45
2018-06-21T06:31:34.308Z,16.45
2018-06-21T06:33:10.019Z,16.31
2018-06-21T06:34:44.809Z,16.29
2018-06-21T06:36:20.722Z,16.18
2018-06-21T06:37:56.305Z,16.16
2018-06-21T06:39:32.142Z,15.92
2018-06-21T06:41:07.608Z,15.90
2018-06-21T06:42:43.147Z,15.77
2018-06-21T06:44:18.320Z,15.67
2018-06-21T06:45:53.229Z,15.67
2018-06-21T06:47:28.574Z,15.60
2018-06-21T06:49:03.647Z,15.54
2018-06-21T06:50:41.468Z,15.47
2018-06-21T06:52:16.352Z,15.40
2018-06-21T06:53:51.141Z,15.42
2018-06-21T06:55:25.855Z,15.40
2018-06-21T06:57:01.327Z,15.41
2018-06-21T06:58:39.293Z,15.43
2018-06-21T07:00:19.615Z,15.38
2018-06-21T07:01:57.609Z,15.48
2018-06-21T07:03:32.959Z,15.39
2018-06-21T07:05:09.528Z,15.38
2018-06-21T07:06:47.738Z,15.46
2018-06-21T07:08:23.242Z,15.45
2018-06-21T07:09:58.915Z,15.38
2018-06-21T07:11:34.551Z,15.33
2018-06-21T07:13:10.579Z,15.28
2018-06-21T07:14:46.938Z,15.30
2018-06-21T07:16:21.865Z,15.20
2018-06-21T07:18:00.157Z,15.15
2018-06-21T07:19:35.174Z,15.15
2018-06-21T07:21:10.850Z,15.12
2018-06-21T07:22:46.629Z,15.12
2018-06-21T07:24:23.525Z,15.07
2018-06-21T07:25:58.332Z,15.05
2018-06-21T07:27:33.402Z,15.04
2018-06-21T07:29:08.776Z,15.02
2018-06-21T07:30:44.495Z,15.02
2018-06-21T07:32:20.494Z,14.99
2018-06-21T07:35:41.000Z,15.05
2018-06-21T07:37:16.635Z,15.02
2018-06-21T07:38:51.436Z,14.92
2018-06-21T07:40:28.390Z,14.88
2018-06-21T07:42:04.120Z,14.85
2018-06-21T07:43:39.284Z,14.82
2018-06-21T07:45:15.531Z,14.84
2018-06-21T07:46:50.775Z,14.68
2018-06-21T07:48:27.422Z,14.60
2018-06-21T07:50:04.053Z,14.66
2018-06-21T07:51:40.507Z,14.68
2018-06-21T07:53:15.308Z,14.68
2018-06-21T07:54:50.580Z,14.74
2018-06-21T07:56:25.606Z,14.67
2018-06-21T07:58:00.472Z,14.69
2018-06-21T07:59:36.354Z,14.60
2018-06-21T08:01:12.804Z,14.70
2018-06-21T08:02:47.899Z,14.60
2018-06-21T08:04:23.796Z,14.57
2018-06-21T08:05:58.628Z,14.65
2018-06-21T08:07:33.506Z,14.74
2018-06-21T08:09:12.054Z,14.62
2018-06-21T08:10:47.109Z,14.60
2018-06-21T08:12:22.074Z,14.72
2018-06-21T08:13:58.162Z,14.75
2018-06-21T08:15:34.056Z,14.87
2018-06-21T08:17:09.094Z,14.86
2018-06-21T08:18:44.116Z,14.91
2018-06-21T08:20:18.929Z,15.08
2018-06-21T08:21:56.323Z,15.29
2018-06-21T08:23:32.462Z,15.51
2018-06-21T08:25:07.207Z,15.62
2018-06-21T08:26:43.810Z,15.66
2018-06-21T08:28:21.644Z,15.79
2018-06-21T08:29:57.929Z,15.84
2018-06-21T08:31:33.683Z,15.66
2018-06-21T08:33:08.764Z,15.66
2018-06-21T08:34:44.804Z,15.65
2018-06-21T08:36:20.339Z,15.83
2018-06-21T08:37:58.103Z,15.94
2018-06-21T08:39:32.985Z,15.89
2018-06-21T08:41:09.488Z,15.68
2018-06-21T08:42:49.274Z,15.83
2018-06-21T08:44:25.770Z,15.79
2018-06-21T08:46:02.639Z,15.69
2018-06-21T08:47:41.148Z,15.37
2018-06-21T08:49:21.126Z,15.20
2018-06-21T08:50:57.735Z,15.00
2018-06-21T08:52:32.663Z,14.92
2018-06-21T08:54:09.751Z,14.96
2018-06-21T08:55:54.451Z,15.04
2018-06-21T08:57:30.150Z,14.90
2018-06-21T08:59:06.592Z,14.83
2018-06-21T09:00:42.327Z,14.76
2018-06-21T09:02:25.851Z,14.70
2018-06-21T09:04:02.299Z,14.73
2018-06-21T09:05:37.466Z,14.99
2018-06-21T09:07:15.745Z,15.31
2018-06-21T09:08:56.473Z,15.41
2018-06-21T09:10:32.556Z,15.73
2018-06-21T09:12:08.863Z,15.36
2018-06-21T09:13:44.835Z,15.43
2018-06-21T09:15:21.098Z,15.10
2018-06-21T09:16:56.808Z,14.79
2018-06-21T09:18:33.632Z,14.67
2018-06-21T09:20:10.688Z,14.63
2018-06-21T09:21:46.584Z,14.61
2018-06-21T09:23:23.239Z,14.79
2018-06-21T09:25:01.168Z,14.87
2018-06-21T09:26:44.052Z,15.16
2018-06-21T09:28:19.770Z,15.09
2018-06-21T09:29:54.808Z,15.15
2018-06-21T09:31:31.246Z,15.02
2018-06-21T09:33:09.510Z,15.00
2018-06-21T09:34:44.899Z,15.16
2018-06-21T09:36:22.326Z,15.23
2018-06-21T09:38:02.351Z,15.08
2018-06-21T09:39:43.422Z,15.16
2018-06-21T09:41:25.509Z,15.39
2018-06-21T09:43:07.891Z,15.08
2018-06-21T09:44:48.080Z,15.34
2018-06-21T09:46:33.872Z,15.52
2018-06-21T09:48:09.477Z,16.03
2018-06-21T09:49:46.680Z,16.20
2018-06-21T09:51:22.678Z,16.41
2018-06-21T09:53:00.557Z,16.46
2018-06-21T09:54:41.899Z,16.30
2018-06-21T09:56:22.590Z,16.02
2018-06-21T09:58:02.481Z,15.83
2018-06-21T09:59:42.070Z,15.45
2018-06-21T10:03:10.566Z,15.20
2018-06-21T10:04:46.207Z,15.09
2018-06-21T10:06:21.296Z,14.71
2018-06-21T10:07:56.987Z,14.60
2018-06-21T10:09:32.773Z,14.47
2018-06-21T10:11:09.798Z,14.75
2018-06-21T10:12:46.791Z,14.84
2018-06-21T10:14:23.622Z,14.75
2018-06-21T10:15:58.068Z,14.99
2018-06-21T10:17:32.981Z,14.96
2018-06-21T10:19:08.233Z,15.78
2018-06-21T10:20:43.427Z,16.05
2018-06-21T10:22:21.200Z,16.25
2018-06-21T10:23:57.169Z,17.23
2018-06-21T10:25:33.214Z,17.00
2018-06-21T10:27:09.284Z,17.36
2018-06-21T10:28:45.240Z,17.76
2018-06-21T10:30:20.276Z,17.53
2018-06-21T10:33:57.391Z,16.96
2018-06-21T10:35:40.310Z,16.39
2018-06-21T10:37:16.274Z,16.24
2018-06-21T10:38:51.515Z,15.89
2018-06-21T10:40:28.036Z,15.96
2018-06-21T10:42:02.726Z,15.67
2018-06-21T10:43:38.589Z,15.54
2018-06-21T10:45:16.197Z,16.11
2018-06-21T10:46:52.232Z,16.37
2018-06-21T10:48:29.209Z,16.62
2018-06-21T10:50:04.646Z,16.92
2018-06-21T10:51:40.332Z,17.20
2018-06-21T10:53:17.157Z,17.61
2018-06-21T10:54:52.783Z,17.54
2018-06-21T10:56:29.551Z,17.13
2018-06-21T10:58:05.864Z,17.08
2018-06-21T10:59:41.327Z,16.99
2018-06-21T11:01:20.514Z,17.57
2018-06-21T11:02:57.636Z,17.67
2018-06-21T11:04:34.207Z,18.16
2018-06-21T11:06:11.007Z,18.20
2018-06-21T11:07:47.666Z,18.24
2018-06-21T11:09:24.175Z,18.51
2018-06-21T11:11:03.116Z,17.73
2018-06-21T11:12:41.137Z,18.26
2018-06-21T11:14:18.604Z,18.90
2018-06-21T11:15:53.550Z,17.47
2018-06-21T11:17:30.257Z,17.53
2018-06-21T11:19:06.026Z,17.25
2018-06-21T11:20:40.966Z,17.67
2018-06-21T11:22:17.780Z,17.35
2018-06-21T11:23:54.785Z,16.54
2018-06-21T11:25:31.259Z,17.15
2018-06-21T11:27:10.516Z,18.01
2018-06-21T11:28:46.013Z,17.43
2018-06-21T11:30:22.824Z,16.76
2018-06-21T11:32:01.447Z,16.86
2018-06-21T11:33:40.286Z,17.74
2018-06-21T11:35:16.503Z,17.26
2018-06-21T11:36:53.891Z,17.49
2018-06-21T11:38:30.632Z,18.05
2018-06-21T11:40:05.739Z,18.37
2018-06-21T11:41:40.692Z,17.86
2018-06-21T11:43:18.506Z,18.41
2018-06-21T11:44:59.990Z,18.47
2018-06-21T11:46:39.117Z,17.93
2018-06-21T11:48:14.370Z,17.75
2018-06-21T11:49:51.473Z,17.58
2018-06-21T11:51:29.003Z,17.59
2018-06-21T11:53:04.724Z,18.28
2018-06-21T11:54:39.916Z,18.68
2018-06-21T11:56:14.736Z,18.54
2018-06-21T11:57:50.206Z,17.76
2018-06-21T11:59:28.031Z,18.38
2018-06-21T12:01:06.245Z,17.96
2018-06-21T12:02:42.575Z,16.72
2018-06-21T12:04:17.481Z,17.13
2018-06-21T12:05:53.704Z,17.48
2018-06-21T12:07:30.627Z,18.25
2018-06-21T12:09:09.226Z,18.22
2018-06-21T12:10:44.868Z,17.97
2018-06-21T12:12:23.503Z,17.41
2018-06-21T12:13:58.320Z,17.65
2018-06-21T12:15:33.442Z,18.27
2018-06-21T12:17:08.192Z,18.20
2018-06-21T12:18:42.889Z,18.66
2018-06-21T12:20:17.648Z,18.32
2018-06-21T12:21:53.425Z,18.71
2018-06-21T12:23:29.515Z,18.89
2018-06-21T12:25:09.104Z,17.30
2018-06-21T12:26:45.527Z,17.28
2018-06-21T12:28:24.643Z,17.68
2018-06-21T12:30:00.385Z,18.30
2018-06-21T12:31:37.784Z,18.23
2018-06-21T12:33:15.438Z,18.36
2018-06-21T12:34:57.600Z,18.71
2018-06-21T12:36:31.245Z,17.81
2018-06-21T12:38:07.307Z,17.75
2018-06-21T12:39:43.129Z,18.04
2018-06-21T12:41:18.395Z,18.11
2018-06-21T12:42:58.430Z,18.16
2018-06-21T12:44:39.205Z,17.80
2018-06-21T12:46:24.093Z,16.88
2018-06-21T12:48:01.146Z,16.70
2018-06-21T12:49:39.503Z,17.64
2018-06-21T12:51:19.208Z,18.07
2018-06-21T12:52:57.297Z,18.06
2018-06-21T12:54:42.480Z,18.60
2018-06-21T12:56:19.480Z,18.16
2018-06-21T12:57:54.527Z,18.13
2018-06-21T12:59:29.620Z,17.94
2018-06-21T13:01:03.826Z,18.00
2018-06-21T13:02:39.258Z,17.59
2018-06-21T13:04:15.447Z,16.96
2018-06-21T13:05:51.611Z,16.39
2018-06-21T13:07:27.279Z,16.71
2018-06-21T13:09:14.263Z,17.47
2018-06-21T13:10:59.846Z,17.73
2018-06-21T13:12:45.508Z,17.43
2018-06-21T13:14:26.523Z,17.14
2018-06-21T13:16:06.258Z,17.40
2018-06-21T13:17:43.703Z,17.92
2018-06-21T13:19:22.330Z,18.05
2018-06-21T13:21:00.882Z,18.07
2018-06-21T13:22:37.324Z,18.21
2018-06-21T13:24:13.591Z,18.14
2018-06-21T13:28:06.801Z,17.66
2018-06-21T13:29:47.941Z,17.19
2018-06-21T13:31:23.329Z,17.47
2018-06-21T13:33:01.988Z,17.61
2018-06-21T13:34:38.732Z,17.98
2018-06-21T13:36:18.892Z,18.19
2018-06-21T13:37:56.572Z,18.81
2018-06-21T13:39:32.621Z,18.05
2018-06-21T13:41:10.628Z,18.42
2018-06-21T13:42:49.738Z,17.98
2018-06-21T13:44:27.405Z,18.37
2018-06-21T13:48:45.228Z,17.61
2018-06-21T13:55:52.365Z,16.96
2018-06-21T13:57:34.689Z,17.81
2018-06-21T13:59:11.319Z,17.44
2018-06-21T14:00:47.246Z,16.67
2018-06-21T14:02:24.565Z,16.10
2018-06-21T14:04:00.261Z,16.93
2018-06-21T14:05:40.114Z,16.69
2018-06-21T14:07:18.752Z,17.00
2018-06-21T14:08:54.767Z,16.45
2018-06-21T14:10:31.812Z,16.66
2018-06-21T14:12:09.678Z,16.96
2018-06-21T14:13:51.556Z,16.90
2018-06-21T14:15:33.145Z,16.30
2018-06-21T14:17:09.821Z,17.53
2018-06-21T14:18:51.016Z,17.27
2018-06-21T14:20:26.567Z,17.09
2018-06-21T14:22:05.065Z,17.05
2018-06-21T14:23:42.929Z,17.21
2018-06-21T14:25:17.887Z,17.44
2018-06-21T14:26:54.440Z,17.77
2018-06-21T14:28:30.353Z,17.04
2018-06-21T14:30:06.627Z,17.05
2018-06-21T14:31:44.208Z,17.40
2018-06-21T14:33:24.460Z,17.35
2018-06-21T14:35:01.616Z,17.04
2018-06-21T14:36:38.263Z,16.71
2018-06-21T14:38:16.338Z,16.83
2018-06-21T14:39:52.047Z,17.00
2018-06-21T14:41:28.299Z,17.80
2018-06-21T14:43:05.330Z,16.98
2018-06-21T14:46:24.608Z,17.27
2018-06-21T14:48:01.471Z,17.17
2018-06-21T14:49:39.454Z,17.50
2018-06-21T14:51:14.327Z,17.39
2018-06-21T14:52:49.601Z,16.74
2018-06-21T14:54:25.206Z,16.10
2018-06-21T14:56:01.359Z,15.86
2018-06-21T14:57:36.190Z,16.84
2018-06-21T14:59:14.717Z,17.11
2018-06-21T15:00:50.110Z,16.33
2018-06-21T15:02:25.970Z,16.54
2018-06-21T15:04:03.351Z,16.84
2018-06-21T15:05:39.357Z,16.67
2018-06-21T15:07:16.744Z,16.42
2018-06-21T15:08:53.575Z,15.84
2018-06-21T15:10:30.624Z,16.51
2018-06-21T15:12:06.489Z,16.83
2018-06-21T15:13:42.673Z,17.03
2018-06-21T15:15:18.453Z,16.98
2018-06-21T15:16:55.545Z,16.65
2018-06-21T15:18:32.494Z,16.30
2018-06-21T15:20:07.980Z,17.24
2018-06-21T15:21:42.755Z,17.31
2018-06-21T15:23:18.960Z,17.07
2018-06-21T15:24:56.653Z,17.03
2018-06-21T15:26:35.547Z,17.21
2018-06-21T15:28:13.296Z,17.79
2018-06-21T15:29:48.244Z,17.39
2018-06-21T15:31:24.144Z,17.35
2018-06-21T15:33:00.840Z,17.56
2018-06-21T15:34:39.148Z,17.06
2018-06-21T15:36:22.268Z,16.65
2018-06-21T15:38:00.277Z,16.81
2018-06-21T15:39:36.839Z,16.69
2018-06-21T15:41:18.442Z,16.25
2018-06-21T15:42:58.590Z,15.92
2018-06-21T15:44:43.183Z,15.99
2018-06-21T15:46:22.401Z,15.46
2018-06-21T15:47:58.256Z,15.03
2018-06-21T15:49:34.159Z,15.40
2018-06-21T15:51:09.417Z,15.68
2018-06-21T15:52:48.828Z,15.99
2018-06-21T15:54:23.619Z,16.43
2018-06-21T15:56:01.247Z,15.92
2018-06-21T15:57:38.522Z,15.51
2018-06-21T15:59:15.855Z,15.18
2018-06-21T16:00:53.472Z,14.88
2018-06-21T16:02:29.275Z,14.90
2018-06-21T16:04:06.705Z,14.79
2018-06-21T16:05:46.054Z,14.74
2018-06-21T16:07:25.997Z,14.81
2018-06-21T16:09:02.591Z,15.62
2018-06-21T16:10:38.349Z,15.53
2018-06-21T16:12:15.334Z,15.02
2018-06-21T16:13:56.470Z,15.24
2018-06-21T16:15:31.741Z,16.02
2018-06-21T16:17:08.214Z,16.11
2018-06-21T16:18:46.063Z,16.35
2018-06-21T16:20:21.932Z,16.51
2018-06-21T16:22:01.682Z,16.65
2018-06-21T16:23:38.257Z,16.49
2018-06-21T16:25:16.328Z,16.64
2018-06-21T16:26:51.455Z,16.70
2018-06-21T16:28:30.249Z,16.39
2018-06-21T16:30:06.693Z,15.69
2018-06-21T16:31:44.733Z,15.24
2018-06-21T16:33:21.467Z,15.24
2018-06-21T16:34:57.738Z,14.88
2018-06-21T16:36:47.021Z,14.80
2018-06-21T16:38:23.380Z,14.41
2018-06-21T16:39:59.017Z,14.21
2018-06-21T16:41:34.515Z,14.07
2018-06-21T16:43:10.011Z,14.62
2018-06-21T16:44:47.374Z,15.20
2018-06-21T16:46:23.736Z,15.43
2018-06-21T16:47:59.448Z,15.40
2018-06-21T16:51:18.470Z,14.99
2018-06-21T16:52:55.537Z,14.91
2018-06-21T16:54:30.538Z,14.68
2018-06-21T16:56:08.399Z,14.83
2018-06-21T16:57:45.716Z,14.67
2018-06-21T16:59:31.770Z,14.97
2018-06-21T17:01:22.058Z,15.14
2018-06-21T17:03:03.136Z,15.26
2018-06-21T17:04:39.634Z,15.18
2018-06-21T17:06:15.705Z,15.07
2018-06-21T17:07:51.357Z,15.10
2018-06-21T17:09:30.640Z,15.36
2018-06-21T17:11:05.601Z,14.54
2018-06-21T17:12:45.344Z,14.20
2018-06-21T17:14:21.739Z,14.17
2018-06-21T17:15:59.208Z,14.21
2018-06-21T17:17:38.013Z,14.23
2018-06-21T17:19:13.767Z,14.03
2018-06-21T17:20:50.354Z,14.39
2018-06-21T17:22:27.041Z,14.66
2018-06-21T17:24:03.727Z,14.67
2018-06-21T17:25:39.232Z,14.38
2018-06-21T17:27:15.966Z,14.36
2018-06-21T17:28:53.215Z,13.76
2018-06-21T17:30:28.374Z,13.71
2018-06-21T17:32:06.100Z,13.36
2018-06-21T17:33:43.509Z,13.31
2018-06-21T17:35:19.324Z,13.20
2018-06-21T17:36:55.289Z,13.14
2018-06-21T17:38:32.132Z,13.00
2018-06-21T17:40:07.325Z,13.03
2018-06-21T17:41:44.154Z,13.13
2018-06-21T17:43:22.654Z,13.02
2018-06-21T17:44:59.526Z,13.04
2018-06-21T17:46:38.834Z,13.09
2018-06-21T17:48:17.435Z,12.96
2018-06-21T17:49:56.306Z,12.79
2018-06-21T17:51:35.578Z,12.75
2018-06-21T17:53:14.238Z,13.05
2018-06-21T17:54:52.387Z,12.96
2018-06-21T17:56:28.554Z,12.78
2018-06-21T17:58:05.301Z,12.68
2018-06-21T17:59:40.797Z,12.69
2018-06-21T18:01:18.116Z,12.62
2018-06-21T18:02:53.206Z,12.42
2018-06-21T18:04:30.008Z,12.57
2018-06-21T18:06:05.805Z,12.46
2018-06-21T18:07:44.020Z,12.49
2018-06-21T18:09:20.899Z,12.46
2018-06-21T18:11:02.066Z,12.38
2018-06-21T18:12:39.665Z,12.25
2018-06-21T18:14:16.381Z,12.22
2018-06-21T18:15:53.207Z,12.34
2018-06-21T18:17:30.677Z,12.34
2018-06-21T18:19:06.571Z,12.35
2018-06-21T18:20:48.573Z,12.38
2018-06-21T18:22:29.931Z,12.28
2018-06-21T18:24:09.377Z,12.20
2018-06-21T18:25:45.731Z,12.27
2018-06-21T18:27:23.631Z,12.20
2018-06-21T18:29:04.158Z,12.24
2018-06-21T18:30:39.515Z,12.19
2018-06-21T18:32:21.463Z,12.16
2018-06-21T18:33:56.756Z,12.11
2018-06-21T18:35:33.447Z,12.07
2018-06-21T18:37:11.680Z,12.00
2018-06-21T18:38:49.250Z,11.98
2018-06-21T18:40:25.912Z,11.87
2018-06-21T18:42:09.514Z,11.85
2018-06-21T18:43:48.680Z,11.98
2018-06-21T18:45:26.282Z,12.01
2018-06-21T18:47:02.480Z,12.05
2018-06-21T18:48:41.493Z,12.13
2018-06-21T18:50:20.702Z,12.14
2018-06-21T18:51:56.424Z,12.23
2018-06-21T18:53:35.833Z,12.28
2018-06-21T18:55:12.680Z,12.17
2018-06-21T18:56:48.692Z,12.02
2018-06-21T18:58:29.706Z,11.87
2018-06-21T19:00:15.328Z,11.75
2018-06-21T19:01:52.618Z,11.61
2018-06-21T19:03:35.367Z,11.42
2018-06-21T19:05:18.181Z,11.32
2018-06-21T19:07:00.184Z,11.29
2018-06-21T19:08:43.893Z,11.17
2018-06-21T19:10:29.271Z,11.15
2018-06-21T19:12:14.334Z,11.07
2018-06-21T19:13:50.093Z,11.03
2018-06-21T19:15:31.034Z,10.93
2018-06-21T19:17:10.164Z,10.86
2018-06-21T19:18:47.342Z,10.84
2018-06-21T19:20:30.508Z,10.84
2018-06-21T19:22:08.677Z,10.77
2018-06-21T19:23:49.016Z,10.79
2018-06-21T19:25:26.976Z,10.74
2018-06-21T19:27:07.542Z,10.73
2018-06-21T19:28:45.571Z,10.72
2018-06-21T19:30:21.392Z,10.74
2018-06-21T19:31:57.327Z,10.69
2018-06-21T19:33:36.580Z,10.71
2018-06-21T19:35:13.697Z,10.66
2018-06-21T19:36:57.828Z,10.69
2018-06-21T19:38:39.546Z,10.71
2018-06-21T19:40:15.899Z,10.73
2018-06-21T19:41:53.287Z,10.74
2018-06-21T19:43:30.144Z,10.75
2018-06-21T19:45:08.075Z,10.74
2018-06-21T19:46:43.390Z,10.70
2018-06-21T19:48:19.383Z,10.71
2018-06-21T19:49:56.614Z,10.73
2018-06-21T19:51:33.039Z,10.69
2018-06-21T19:53:13.261Z,10.67
2018-06-21T19:56:25.943Z,10.92
2018-06-21T19:58:03.733Z,10.71
2018-06-21T19:59:41.216Z,10.67
2018-06-21T20:01:23.289Z,10.61
2018-06-21T20:03:02.359Z,10.56
2018-06-21T20:04:43.506Z,10.47
2018-06-21T20:06:21.592Z,10.45
2018-06-21T20:08:00.131Z,10.41
2018-06-21T20:09:41.544Z,10.37
2018-06-21T20:11:25.115Z,10.37
2018-06-21T20:13:05.977Z,10.39
2018-06-21T20:14:50.820Z,10.42
2018-06-21T20:16:39.095Z,10.39
2018-06-21T20:18:18.675Z,10.34
2018-06-21T20:20:06.460Z,10.32
2018-06-21T20:21:45.242Z,10.29
2018-06-21T20:23:27.193Z,10.26
2018-06-21T20:25:11.759Z,10.22
2018-06-21T20:28:47.487Z,10.10
2018-06-21T20:30:26.107Z,10.08
2018-06-21T20:32:03.860Z,10.00
2018-06-21T20:33:44.974Z,9.97
2018-06-21T20:35:25.698Z,9.94
2018-06-21T20:37:03.495Z,9.92
2018-06-21T20:38:44.875Z,9.95
2018-06-21T20:40:26.963Z,9.97
2018-06-21T20:42:04.723Z,9.97
2018-06-21T20:43:43.409Z,9.97
2018-06-21T20:47:08.243Z,9.97
2018-06-21T20:48:47.297Z,9.92
2018-06-21T20:50:27.952Z,9.94
2018-06-21T20:52:10.264Z,9.90
2018-06-21T20:53:47.519Z,9.83
2018-06-21T20:55:25.243Z,9.79
2018-06-21T20:57:02.856Z,9.74
2018-06-21T20:58:42.775Z,9.75
2018-06-21T21:00:19.187Z,9.66
2018-06-21T21:02:03.363Z,9.66
2018-06-21T21:03:46.959Z,9.62
2018-06-21T21:05:24.400Z,9.57
2018-06-21T21:07:06.354Z,9.51
2018-06-21T21:08:50.521Z,9.45
2018-06-21T21:10:35.547Z,9.40
2018-06-21T21:12:20.713Z,9.34
2018-06-21T21:14:09.501Z,9.35
2018-06-21T21:15:57.012Z,9.36
2018-06-21T21:17:40.533Z,9.33
2018-06-21T21:19:23.704Z,9.29
2018-06-21T21:21:03.605Z,9.24